Time;durP1;ratioP1;P1;durP2;ratioP2;P2;SDS_P1;SDS_P2;PMS_P1;PMS_P2;Temp;Humidity;BMP_temperature;BMP_pressure;BME280_temperature;BME280_humidity;BME280_pressure;Samples;Min_cycle;Max_cycle;Signal;HPM_P1;HPM_P2
2023/11/20 00:01:46;;;;;;;26.95;21.17;;;;;;;;;;4972578;28;20543;-49
2023/11/20 00:04:12;;;;;;;29.17;20.67;;;;;;;;;;4973034;28;20030;-48
2023/11/20 00:06:39;;;;;;;26.35;20.50;;;;;;;;;;4972823;28;20161;-54
2023/11/20 00:09:07;;;;;;;27.55;21.73;;;;;;;;;;4960422;28;20027;-48
2023/11/20 00:11:33;;;;;;;23.90;19.40;;;;;;;;;;4972741;28;20509;-49
2023/11/20 00:13:59;;;;;;;29.65;20.48;;;;;;;;;;4972660;28;20476;-48
2023/11/20 00:16:25;;;;;;;26.13;21.90;;;;;;;;;;4972544;28;20043;-49
2023/11/20 00:18:52;;;;;;;26.38;21.75;;;;;;;;;;4972492;28;20035;-49
2023/11/20 00:21:18;;;;;;;26.63;21.52;;;;;;;;;;4972558;28;20033;-51
2023/11/20 00:23:44;;;;;;;29.08;21.77;;;;;;;;;;4972700;28;20058;-49
2023/11/20 00:26:11;;;;;;;30.15;23.60;;;;;;;;;;4974369;28;20066;-50
2023/11/20 00:28:37;;;;;;;28.75;22.40;;;;;;;;;;4976237;28;20109;-49
2023/11/20 00:31:03;;;;;;;28.02;23.33;;;;;;;;;;4975767;28;20122;-48
2023/11/20 00:33:29;;;;;;;32.40;23.42;;;;;;;;;;4958686;28;20507;-48
2023/11/20 00:35:55;;;;;;;28.63;22.95;;;;;;;;;;4976086;28;20066;-48
2023/11/20 00:38:21;;;;;;;25.95;21.85;;;;;;;;;;4975921;28;20047;-49
2023/11/20 00:40:47;;;;;;;28.58;21.75;;;;;;;;;;4976218;28;20026;-48
2023/11/20 00:43:14;;;;;;;30.95;23.35;;;;;;;;;;4976135;28;20404;-50
2023/11/20 00:45:40;;;;;;;30.15;23.48;;;;;;;;;;4975924;28;20019;-49
2023/11/20 00:48:06;;;;;;;29.17;22.65;;;;;;;;;;4975859;28;20030;-52
2023/11/20 00:50:32;;;;;;;31.02;22.83;;;;;;;;;;4975843;28;20066;-51
2023/11/20 00:52:59;;;;;;;27.80;23.75;;;;;;;;;;4975671;28;20041;-54
2023/11/20 00:55:25;;;;;;;30.75;25.75;;;;;;;;;;4975561;28;20102;-50
2023/11/20 00:57:51;;;;;;;29.05;24.23;;;;;;;;;;4975691;28;20027;-49
2023/11/20 01:00:18;;;;;;;32.78;24.35;;;;;;;;;;4958131;28;20049;-50
2023/11/20 01:02:44;;;;;;;30.83;23.05;;;;;;;;;;4975427;28;20489;-49
2023/11/20 01:05:10;;;;;;;27.33;24.35;;;;;;;;;;4975582;28;20050;-48
2023/11/20 01:07:36;;;;;;;33.80;25.48;;;;;;;;;;4975709;28;20102;-48
2023/11/20 01:10:03;;;;;;;27.90;23.95;;;;;;;;;;4975277;28;20042;-50
2023/11/20 01:12:30;;;;;;;31.98;23.50;;;;;;;;;;4975301;28;20022;-49
2023/11/20 01:14:56;;;;;;;32.38;25.33;;;;;;;;;;4975401;28;20027;-49
2023/11/20 01:17:22;;;;;;;28.77;24.38;;;;;;;;;;4975137;28;20334;-49
2023/11/20 01:19:48;;;;;;;28.08;24.15;;;;;;;;;;4975204;28;20038;-49
2023/11/20 01:22:14;;;;;;;28.77;24.40;;;;;;;;;;4975179;28;20035;-48
2023/11/20 01:24:39;;;;;;;31.90;25.20;;;;;;;;;;4975159;28;20094;-49
2023/11/20 01:27:06;;;;;;;30.08;24.23;;;;;;;;;;4975134;28;20061;-50
2023/11/20 01:29:33;;;;;;;31.95;24.10;;;;;;;;;;4974867;28;20050;-49
2023/11/20 01:31:59;;;;;;;36.85;24.25;;;;;;;;;;4957564;28;20112;-49
2023/11/20 01:34:25;;;;;;;31.83;24.75;;;;;;;;;;4974886;28;20026;-50
2023/11/20 01:36:51;;;;;;;31.08;24.17;;;;;;;;;;4974888;28;20082;-50
2023/11/20 01:39:17;;;;;;;28.02;23.65;;;;;;;;;;4957433;28;20029;-50
2023/11/20 01:41:43;;;;;;;28.65;23.55;;;;;;;;;;4974750;28;20413;-49
2023/11/20 01:44:09;;;;;;;28.92;25.00;;;;;;;;;;4974762;28;20055;-51
2023/11/20 01:46:36;;;;;;;29.58;23.27;;;;;;;;;;4974634;28;20033;-49
2023/11/20 01:49:04;;;;;;;27.88;24.23;;;;;;;;;;4974630;28;20497;-47
2023/11/20 01:51:31;;;;;;;31.08;24.45;;;;;;;;;;4974601;28;20097;-48
2023/11/20 01:53:58;;;;;;;29.40;24.50;;;;;;;;;;4974849;28;20022;-55
2023/11/20 01:56:27;;;;;;;34.15;24.75;;;;;;;;;;4974827;28;20046;-48
2023/11/20 01:58:55;;;;;;;30.17;24.05;;;;;;;;;;4974493;28;20054;-47
2023/11/20 02:01:21;;;;;;;27.33;21.20;;;;;;;;;;4974256;28;20384;-49
2023/11/20 02:03:47;;;;;;;25.35;20.77;;;;;;;;;;4974437;28;20491;-49
2023/11/20 02:06:14;;;;;;;23.40;18.50;;;;;;;;;;4974722;28;20019;-49
2023/11/20 02:08:40;;;;;;;26.33;18.95;;;;;;;;;;4974257;28;20038;-50
2023/11/20 02:11:06;;;;;;;22.98;19.52;;;;;;;;;;4973900;28;20742;-47
2023/11/20 02:13:32;;;;;;;26.08;19.58;;;;;;;;;;4973024;28;20027;-50
2023/11/20 02:15:58;;;;;;;21.92;18.10;;;;;;;;;;4972804;28;20049;-48
2023/11/20 02:18:31;;;;;;;22.83;19.27;;;;;;;;;;4973134;28;20433;-49
2023/11/20 02:20:57;;;;;;;22.45;18.27;;;;;;;;;;4972644;28;20022;-49
2023/11/20 02:23:23;;;;;;;24.20;18.40;;;;;;;;;;4972686;28;20381;-48
2023/11/20 02:25:51;;;;;;;24.50;18.67;;;;;;;;;;4972700;28;20031;-48
2023/11/20 02:28:26;;;;;;;21.35;18.55;;;;;;;;;;4972912;28;20484;-52
2023/11/20 02:30:53;;;;;;;27.92;20.38;;;;;;;;;;4972877;28;20052;-48
2023/11/20 02:33:19;;;;;;;22.15;18.02;;;;;;;;;;4971799;28;20428;-51
2023/11/20 02:35:45;;;;;;;23.85;18.75;;;;;;;;;;4971502;28;20035;-49
2023/11/20 02:38:11;;;;;;;22.00;19.48;;;;;;;;;;4970850;28;20086;-50
2023/11/20 02:40:37;;;;;;;23.70;19.35;;;;;;;;;;4953061;28;20039;-51
2023/11/20 02:43:03;;;;;;;23.35;18.67;;;;;;;;;;4952998;28;20023;-53
2023/11/20 02:45:29;;;;;;;24.65;20.38;;;;;;;;;;4961481;28;20019;-53
2023/11/20 02:47:55;;;;;;;24.08;19.50;;;;;;;;;;4958062;28;20089;-52
2023/11/20 02:50:21;;;;;;;24.55;19.88;;;;;;;;;;4960099;28;20110;-50
2023/11/20 02:52:47;;;;;;;25.58;21.05;;;;;;;;;;4956722;28;20441;-53
2023/11/20 02:55:14;;;;;;;27.50;21.38;;;;;;;;;;4954392;28;20098;-53
2023/11/20 02:57:40;;;;;;;25.70;20.60;;;;;;;;;;4960107;28;20669;-50
2023/11/20 03:00:11;;;;;;;23.30;20.30;;;;;;;;;;4956138;28;20133;-51
2023/11/20 03:02:37;;;;;;;23.45;20.23;;;;;;;;;;4959717;28;20022;-50
2023/11/20 03:05:04;;;;;;;24.27;19.73;;;;;;;;;;4963053;28;20041;-49
2023/11/20 03:07:30;;;;;;;23.60;19.23;;;;;;;;;;4967806;28;20463;-49
2023/11/20 03:09:56;;;;;;;23.17;19.48;;;;;;;;;;4964029;28;20027;-52
2023/11/20 03:12:22;;;;;;;24.00;19.77;;;;;;;;;;4968891;28;20030;-50
2023/11/20 03:14:48;;;;;;;22.50;18.70;;;;;;;;;;4973208;28;20089;-51
2023/11/20 03:17:14;;;;;;;20.88;18.73;;;;;;;;;;4955891;28;20134;-49
2023/11/20 03:19:40;;;;;;;20.80;18.25;;;;;;;;;;4973130;28;20493;-50
2023/11/20 03:22:06;;;;;;;21.35;18.00;;;;;;;;;;4973381;28;20026;-49
2023/11/20 03:24:32;;;;;;;23.52;18.33;;;;;;;;;;4973068;28;20367;-50
2023/11/20 03:26:58;;;;;;;21.40;16.83;;;;;;;;;;4973345;28;20031;-49
2023/11/20 03:29:24;;;;;;;25.65;17.35;;;;;;;;;;4955548;28;20030;-50
2023/11/20 03:31:49;;;;;;;17.92;15.65;;;;;;;;;;4972927;28;20485;-49
2023/11/20 03:34:16;;;;;;;19.33;17.17;;;;;;;;;;4973160;28;20035;-50
2023/11/20 03:36:42;;;;;;;22.15;17.88;;;;;;;;;;4972940;28;20126;-49
2023/11/20 03:39:08;;;;;;;21.73;17.63;;;;;;;;;;4973261;28;20117;-51
2023/11/20 03:41:34;;;;;;;22.75;17.75;;;;;;;;;;4972894;28;20041;-53
2023/11/20 03:44:00;;;;;;;21.67;17.15;;;;;;;;;;4973036;28;20041;-48
2023/11/20 03:46:26;;;;;;;21.05;16.70;;;;;;;;;;4972770;28;20396;-50
2023/11/20 03:48:52;;;;;;;20.85;18.58;;;;;;;;;;4973015;28;20027;-49
2023/11/20 03:51:18;;;;;;;23.52;16.52;;;;;;;;;;4972602;28;20033;-49
2023/11/20 03:53:45;;;;;;;18.08;16.20;;;;;;;;;;4972911;28;20018;-49
2023/11/20 03:56:15;;;;;;;20.25;16.52;;;;;;;;;;4972890;28;20432;-50
2023/11/20 03:58:42;;;;;;;18.95;15.15;;;;;;;;;;4973170;28;20177;-48
2023/11/20 04:01:08;;;;;;;19.27;14.40;;;;;;;;;;4974760;28;20029;-48
2023/11/20 04:03:34;;;;;;;19.05;14.15;;;;;;;;;;4976625;28;20062;-49
2023/11/20 04:06:00;;;;;;;19.73;15.45;;;;;;;;;;4977007;28;20050;-49
2023/11/20 04:08:26;;;;;;;19.55;14.32;;;;;;;;;;4976721;28;20030;-49
2023/11/20 04:10:52;;;;;;;19.92;14.70;;;;;;;;;;4976510;28;20424;-49
2023/11/20 04:13:18;;;;;;;20.48;15.52;;;;;;;;;;4976610;28;20026;-50
2023/11/20 04:15:44;;;;;;;19.35;14.13;;;;;;;;;;4976423;28;20034;-48
2023/11/20 04:18:10;;;;;;;19.95;13.98;;;;;;;;;;4976468;28;20049;-49
2023/11/20 04:20:36;;;;;;;18.48;14.70;;;;;;;;;;4976241;28;20098;-54
2023/11/20 04:23:03;;;;;;;19.23;14.15;;;;;;;;;;4976558;28;20030;-52
2023/11/20 04:25:29;;;;;;;16.63;13.15;;;;;;;;;;4976357;28;20168;-54
2023/11/20 04:27:55;;;;;;;17.05;13.10;;;;;;;;;;4976653;28;20416;-53
2023/11/20 04:30:24;;;;;;;13.68;12.30;;;;;;;;;;4976369;28;20047;-54
2023/11/20 04:32:50;;;;;;;16.05;12.07;;;;;;;;;;4975932;28;20396;-51
2023/11/20 04:35:16;;;;;;;17.00;12.07;;;;;;;;;;4958730;28;20019;-52
2023/11/20 04:37:42;;;;;;;16.10;11.38;;;;;;;;;;4958548;28;20326;-53
2023/11/20 04:40:09;;;;;;;13.48;10.82;;;;;;;;;;4976375;28;20027;-49
2023/11/20 04:42:35;;;;;;;13.30;11.20;;;;;;;;;;4975994;28;20515;-51
2023/11/20 04:45:01;;;;;;;14.55;11.05;;;;;;;;;;4958513;28;20105;-50
2023/11/20 04:47:27;;;;;;;15.00;11.70;;;;;;;;;;4976018;28;20446;-49
2023/11/20 04:49:53;;;;;;;14.18;11.07;;;;;;;;;;4975968;28;20023;-51
2023/11/20 04:52:19;;;;;;;16.33;11.40;;;;;;;;;;4975872;28;20053;-50
2023/11/20 04:54:45;;;;;;;15.73;12.02;;;;;;;;;;4975671;28;20054;-53
2023/11/20 04:57:11;;;;;;;12.48;11.15;;;;;;;;;;4975731;28;20460;-52
2023/11/20 04:59:37;;;;;;;11.55;10.05;;;;;;;;;;4975568;28;20110;-50
2023/11/20 05:02:03;;;;;;;11.63;10.23;;;;;;;;;;4975450;28;20027;-54
2023/11/20 05:04:29;;;;;;;14.52;10.63;;;;;;;;;;4975637;28;20388;-50
2023/11/20 05:06:55;;;;;;;13.95;10.68;;;;;;;;;;4975649;28;20038;-48
2023/11/20 05:09:23;;;;;;;13.75;11.18;;;;;;;;;;4975458;28;20037;-51
2023/11/20 05:11:49;;;;;;;13.68;10.55;;;;;;;;;;4975296;28;20326;-49
2023/11/20 05:14:15;;;;;;;15.10;10.45;;;;;;;;;;4975298;28;20027;-47
2023/11/20 05:16:41;;;;;;;16.10;11.13;;;;;;;;;;4975310;28;20039;-50
2023/11/20 05:19:07;;;;;;;11.88;9.90;;;;;;;;;;4975228;28;20030;-49
2023/11/20 05:21:33;;;;;;;13.68;9.60;;;;;;;;;;4975162;28;20030;-48
2023/11/20 05:23:59;;;;;;;13.25;9.82;;;;;;;;;;4975176;28;20038;-49
2023/11/20 05:26:25;;;;;;;15.00;10.18;;;;;;;;;;4957772;28;20041;-48
2023/11/20 05:28:54;;;;;;;12.63;11.05;;;;;;;;;;4975153;28;20023;-50
2023/11/20 05:31:21;;;;;;;13.63;10.05;;;;;;;;;;4961661;28;20358;-50
2023/11/20 05:33:47;;;;;;;14.98;10.93;;;;;;;;;;4975042;28;20092;-50
2023/11/20 05:36:14;;;;;;;15.68;11.07;;;;;;;;;;4974877;28;20039;-48
2023/11/20 05:38:40;;;;;;;12.13;10.30;;;;;;;;;;4974933;28;20589;-49
2023/11/20 05:41:06;;;;;;;14.35;11.32;;;;;;;;;;4974811;28;20023;-49
2023/11/20 05:43:32;;;;;;;13.38;10.73;;;;;;;;;;4957724;28;20381;-50
2023/11/20 05:45:58;;;;;;;15.40;10.65;;;;;;;;;;4974797;28;20023;-49
2023/11/20 05:48:24;;;;;;;13.38;11.40;;;;;;;;;;4957418;28;20391;-51
2023/11/20 05:50:50;;;;;;;13.32;11.15;;;;;;;;;;4974819;28;20035;-48
2023/11/20 05:53:16;;;;;;;15.15;11.48;;;;;;;;;;4974590;28;20027;-49
2023/11/20 05:55:43;;;;;;;12.55;10.65;;;;;;;;;;4974543;28;20031;-51
2023/11/20 05:58:09;;;;;;;15.55;11.50;;;;;;;;;;4974552;28;20015;-49
2023/11/20 06:00:36;;;;;;;14.48;11.30;;;;;;;;;;4974559;28;20022;-49
2023/11/20 06:03:02;;;;;;;15.60;12.50;;;;;;;;;;4974479;28;20030;-48
2023/11/20 06:05:28;;;;;;;13.98;11.15;;;;;;;;;;4974417;28;20023;-50
2023/11/20 06:07:54;;;;;;;12.60;9.90;;;;;;;;;;4974500;28;20022;-50
2023/11/20 06:10:20;;;;;;;12.23;10.50;;;;;;;;;;4974619;28;20192;-49
2023/11/20 06:12:46;;;;;;;13.85;10.65;;;;;;;;;;4974416;28;20499;-52
2023/11/20 06:15:12;;;;;;;17.08;10.77;;;;;;;;;;4948034;29;20477;-53
2023/11/20 06:17:38;;;;;;;13.40;10.70;;;;;;;;;;4973660;28;20039;-50
2023/11/20 06:20:08;;;;;;;16.60;11.60;;;;;;;;;;4974233;28;20030;-48
2023/11/20 06:22:35;;;;;;;15.27;12.07;;;;;;;;;;4973649;28;20086;-50
2023/11/20 06:25:01;;;;;;;15.93;12.32;;;;;;;;;;4974184;28;20332;-50
2023/11/20 06:27:27;;;;;;;15.95;11.32;;;;;;;;;;4974026;28;20102;-49
2023/11/20 06:29:53;;;;;;;15.70;12.00;;;;;;;;;;4968274;28;20061;-49
2023/11/20 06:32:19;;;;;;;17.08;11.73;;;;;;;;;;4970148;28;20056;-49
2023/11/20 06:34:45;;;;;;;13.68;12.00;;;;;;;;;;4973225;28;20027;-48
2023/11/20 06:37:11;;;;;;;14.85;12.00;;;;;;;;;;4963830;28;20039;-52
2023/11/20 06:39:37;;;;;;;13.20;11.85;;;;;;;;;;4977303;28;20018;-50
2023/11/20 06:42:03;;;;;;;19.83;15.02;;;;;;;;;;4974004;28;20031;-51
2023/11/20 06:44:29;;;;;;;19.83;15.65;;;;;;;;;;4973795;28;20026;-49
2023/11/20 06:46:56;;;;;;;22.98;17.38;;;;;;;;;;4973862;28;20342;-50
2023/11/20 06:49:22;;;;;;;26.85;20.65;;;;;;;;;;4973554;28;20335;-49
2023/11/20 06:51:48;;;;;;;25.48;19.80;;;;;;;;;;4965268;28;20113;-49
2023/11/20 06:54:13;;;;;;;29.13;20.45;;;;;;;;;;4973424;28;20026;-49
2023/11/20 06:56:39;;;;;;;23.42;20.00;;;;;;;;;;4973389;28;20078;-49
2023/11/20 06:59:05;;;;;;;28.83;21.75;;;;;;;;;;4973645;28;20376;-48
2023/11/20 07:01:31;;;;;;;26.95;21.58;;;;;;;;;;4973140;28;20027;-48
2023/11/20 07:03:59;;;;;;;28.23;23.73;;;;;;;;;;4974209;28;20101;-53
2023/11/20 07:06:26;;;;;;;27.92;22.33;;;;;;;;;;4961864;28;20046;-52
2023/11/20 07:08:54;;;;;;;26.20;22.50;;;;;;;;;;4971548;28;20021;-52
2023/11/20 07:11:20;;;;;;;29.13;23.13;;;;;;;;;;4974322;28;20375;-51
2023/11/20 07:13:46;;;;;;;27.75;23.67;;;;;;;;;;4952479;28;20027;-55
2023/11/20 07:16:13;;;;;;;29.73;24.25;;;;;;;;;;4972646;28;20037;-49
2023/11/20 07:18:39;;;;;;;28.35;25.33;;;;;;;;;;4972229;28;20042;-48
2023/11/20 07:21:07;;;;;;;31.15;26.33;;;;;;;;;;4964322;28;20027;-51
2023/11/20 07:23:33;;;;;;;30.10;25.45;;;;;;;;;;4961001;28;20027;-54
2023/11/20 07:25:59;;;;;;;72.57;62.05;;;;;;;;;;4967646;28;20050;-54
2023/11/20 07:28:25;;;;;;;38.70;34.42;;;;;;;;;;4966862;28;20045;-50
2023/11/20 07:30:51;;;;;;;40.72;34.85;;;;;;;;;;4970976;28;20492;-53
2023/11/20 07:33:17;;;;;;;44.63;34.70;;;;;;;;;;4971052;28;20421;-53
2023/11/20 07:35:43;;;;;;;82.38;72.60;;;;;;;;;;4972204;28;20031;-50
2023/11/20 07:38:09;;;;;;;36.85;32.55;;;;;;;;;;4976205;28;20334;-47
2023/11/20 07:40:36;;;;;;;39.78;34.20;;;;;;;;;;4975991;28;20109;-51
2023/11/20 07:43:02;;;;;;;38.08;33.25;;;;;;;;;;4974700;28;20026;-53
2023/11/20 07:45:28;;;;;;;32.42;28.90;;;;;;;;;;4979484;28;20030;-48
2023/11/20 07:47:54;;;;;;;31.98;27.90;;;;;;;;;;4973584;28;20206;-51
2023/11/20 07:50:21;;;;;;;31.52;27.52;;;;;;;;;;4983872;28;20042;-55
2023/11/20 07:52:47;;;;;;;31.27;27.50;;;;;;;;;;4980423;28;20023;-53
2023/11/20 07:55:13;;;;;;;116.57;98.40;;;;;;;;;;4969223;28;20125;-54
2023/11/20 07:57:39;;;;;;;50.95;39.63;;;;;;;;;;4978169;28;20127;-49
2023/11/20 08:00:05;;;;;;;63.67;49.60;;;;;;;;;;4976665;28;20046;-54
2023/11/20 08:02:31;;;;;;;49.50;35.85;;;;;;;;;;4972808;28;20118;-49
2023/11/20 08:04:58;;;;;;;38.53;30.60;;;;;;;;;;4980062;28;20026;-56
2023/11/20 08:07:24;;;;;;;38.55;29.95;;;;;;;;;;4984838;28;20031;-60
2023/11/20 08:09:50;;;;;;;33.67;29.45;;;;;;;;;;4980070;28;20034;-53
2023/11/20 08:12:16;;;;;;;35.30;29.20;;;;;;;;;;4972315;28;20041;-51
2023/11/20 08:14:42;;;;;;;34.20;28.42;;;;;;;;;;4977353;28;20041;-52
2023/11/20 08:17:08;;;;;;;40.97;32.92;;;;;;;;;;4968563;28;20035;-48
2023/11/20 08:19:34;;;;;;;31.45;27.40;;;;;;;;;;4965169;28;20030;-54
2023/11/20 08:22:00;;;;;;;35.67;28.60;;;;;;;;;;4975525;28;20039;-57
2023/11/20 08:24:26;;;;;;;35.95;28.50;;;;;;;;;;4976225;28;20027;-52
2023/11/20 08:26:52;;;;;;;32.75;29.15;;;;;;;;;;4967055;28;20333;-52
2023/11/20 08:29:21;;;;;;;31.20;27.45;;;;;;;;;;4967153;28;20093;-54
2023/11/20 08:31:47;;;;;;;38.22;29.50;;;;;;;;;;4942120;28;20034;-57
2023/11/20 08:34:13;;;;;;;37.05;30.55;;;;;;;;;;4970294;28;20078;-50
2023/11/20 08:36:40;;;;;;;62.75;50.58;;;;;;;;;;4971245;28;20077;-51
2023/11/20 08:39:11;;;;;;;39.78;31.73;;;;;;;;;;4971242;28;20027;-49
2023/11/20 08:41:38;;;;;;;36.05;28.00;;;;;;;;;;4970598;28;20090;-48
2023/11/20 08:44:04;;;;;;;35.55;30.10;;;;;;;;;;4971600;28;20023;-56
2023/11/20 08:46:30;;;;;;;35.50;29.98;;;;;;;;;;4973483;28;20093;-49
2023/11/20 08:48:56;;;;;;;35.13;30.08;;;;;;;;;;4978695;28;20030;-51
2023/11/20 08:51:22;;;;;;;37.08;30.63;;;;;;;;;;4975143;28;20073;-46
2023/11/20 08:53:48;;;;;;;33.55;29.88;;;;;;;;;;4965295;28;20030;-48
2023/11/20 08:56:14;;;;;;;34.47;29.15;;;;;;;;;;4975538;28;20050;-61
2023/11/20 08:58:40;;;;;;;33.33;28.83;;;;;;;;;;4975542;28;20027;-62
2023/11/20 09:01:06;;;;;;;36.83;30.30;;;;;;;;;;4975634;28;20041;-61
2023/11/20 09:03:32;;;;;;;33.78;30.08;;;;;;;;;;4975489;28;20019;-50
2023/11/20 09:05:58;;;;;;;39.08;30.88;;;;;;;;;;4975587;28;20510;-51
2023/11/20 09:08:26;;;;;;;39.95;29.75;;;;;;;;;;4975312;28;20125;-48
2023/11/20 09:10:52;;;;;;;40.17;31.65;;;;;;;;;;4975223;28;20027;-51
2023/11/20 09:13:18;;;;;;;36.60;31.33;;;;;;;;;;4975591;28;20101;-56
2023/11/20 09:15:44;;;;;;;37.83;31.58;;;;;;;;;;4975145;28;20018;-58
2023/11/20 09:18:12;;;;;;;37.42;32.58;;;;;;;;;;4975234;28;20400;-53
2023/11/20 09:20:38;;;;;;;39.45;33.72;;;;;;;;;;4975198;28;20154;-49
2023/11/20 09:23:04;;;;;;;38.90;33.95;;;;;;;;;;4975312;28;20134;-50
2023/11/20 09:25:30;;;;;;;37.67;33.58;;;;;;;;;;4957632;28;20026;-48
2023/11/20 09:27:57;;;;;;;37.58;31.45;;;;;;;;;;4975130;28;20043;-47
2023/11/20 09:30:23;;;;;;;35.42;31.55;;;;;;;;;;4974365;28;20050;-48
2023/11/20 09:32:49;;;;;;;37.03;33.10;;;;;;;;;;4960632;28;20106;-48
2023/11/20 09:35:16;;;;;;;37.95;31.38;;;;;;;;;;4960244;28;20410;-51
2023/11/20 09:37:42;;;;;;;36.78;30.48;;;;;;;;;;4974905;28;20090;-57
2023/11/20 09:40:09;;;;;;;35.47;30.42;;;;;;;;;;4973311;28;20022;-50
2023/11/20 09:42:36;;;;;;;33.03;29.13;;;;;;;;;;4974745;28;20031;-47
2023/11/20 09:45:04;;;;;;;33.03;29.50;;;;;;;;;;4974714;28;20019;-48
2023/11/20 09:47:31;;;;;;;35.03;30.05;;;;;;;;;;4974308;28;20019;-48
2023/11/20 09:49:57;;;;;;;37.67;30.33;;;;;;;;;;4974826;28;20350;-59
2023/11/20 09:52:27;;;;;;;35.97;30.83;;;;;;;;;;4957130;28;20029;-55
2023/11/20 09:54:56;;;;;;;36.22;30.90;;;;;;;;;;4974598;28;20046;-50
2023/11/20 09:57:26;;;;;;;34.20;29.00;;;;;;;;;;4973987;28;20035;-48
2023/11/20 09:59:52;;;;;;;33.88;30.25;;;;;;;;;;4974040;28;20067;-48
2023/11/20 10:02:18;;;;;;;34.50;30.30;;;;;;;;;;4974502;28;20058;-48
2023/11/20 10:04:46;;;;;;;37.85;29.83;;;;;;;;;;4974710;28;20026;-48
2023/11/20 10:07:13;;;;;;;36.05;30.23;;;;;;;;;;4974529;28;20031;-48
2023/11/20 10:09:43;;;;;;;35.95;30.58;;;;;;;;;;4974327;28;20117;-51
2023/11/20 10:12:12;;;;;;;36.13;29.73;;;;;;;;;;4974188;28;20472;-51
2023/11/20 10:14:38;;;;;;;36.95;28.08;;;;;;;;;;4957090;28;20030;-62
2023/11/20 10:17:06;;;;;;;36.10;29.70;;;;;;;;;;4974041;28;20042;-59
2023/11/20 10:19:32;;;;;;;37.40;29.33;;;;;;;;;;4956675;28;20174;-56
2023/11/20 10:21:58;;;;;;;36.42;28.52;;;;;;;;;;4974121;28;20480;-50
2023/11/20 10:24:25;;;;;;;33.45;29.85;;;;;;;;;;4974203;28;20014;-53
2023/11/20 10:26:53;;;;;;;39.30;30.00;;;;;;;;;;4973851;28;20033;-52
2023/11/20 10:29:20;;;;;;;32.55;29.05;;;;;;;;;;4973655;28;20068;-54
2023/11/20 10:31:47;;;;;;;34.45;30.05;;;;;;;;;;4973357;28;20031;-53
2023/11/20 10:34:14;;;;;;;34.17;30.40;;;;;;;;;;4973807;28;20038;-54
2023/11/20 10:36:40;;;;;;;33.03;29.20;;;;;;;;;;4973533;28;20050;-55
2023/11/20 10:39:12;;;;;;;34.17;30.17;;;;;;;;;;4973666;28;20031;-53
2023/11/20 10:41:41;;;;;;;35.15;29.42;;;;;;;;;;4973717;28;20031;-52
2023/11/20 10:44:08;;;;;;;33.70;28.88;;;;;;;;;;4973295;28;20101;-54
2023/11/20 10:46:34;;;;;;;35.72;29.30;;;;;;;;;;4956105;28;20026;-55
2023/11/20 10:49:08;;;;;;;34.45;28.33;;;;;;;;;;4973393;28;20121;-56
2023/11/20 10:51:34;;;;;;;33.03;29.30;;;;;;;;;;4974167;28;20445;-55
2023/11/20 10:54:04;;;;;;;36.70;29.77;;;;;;;;;;4973301;28;20023;-59
2023/11/20 10:56:32;;;;;;;36.78;30.83;;;;;;;;;;4973463;28;20038;-59
2023/11/20 10:59:00;;;;;;;35.90;31.77;;;;;;;;;;4973627;28;20026;-52
2023/11/20 11:01:28;;;;;;;37.90;30.77;;;;;;;;;;4973089;28;20050;-53
2023/11/20 11:03:56;;;;;;;44.08;32.65;;;;;;;;;;4973750;28;20030;-53
2023/11/20 11:06:23;;;;;;;36.78;29.60;;;;;;;;;;4973377;28;20030;-52
2023/11/20 11:08:49;;;;;;;39.72;31.02;;;;;;;;;;4973106;28;20023;-51
2023/11/20 11:11:16;;;;;;;35.08;29.55;;;;;;;;;;4973504;28;20071;-59
2023/11/20 11:13:43;;;;;;;34.75;30.25;;;;;;;;;;4973384;28;20027;-55
2023/11/20 11:16:11;;;;;;;40.63;29.98;;;;;;;;;;4959806;28;20027;-51
2023/11/20 11:18:38;;;;;;;37.05;31.60;;;;;;;;;;4973572;28;20049;-49
2023/11/20 11:21:08;;;;;;;40.47;31.08;;;;;;;;;;4973155;28;20136;-49
2023/11/20 11:23:50;;;;;;;36.20;31.05;;;;;;;;;;4973266;28;20037;-57
2023/11/20 11:26:16;;;;;;;37.38;31.77;;;;;;;;;;4973140;28;20026;-62
2023/11/20 11:28:44;;;;;;;33.63;29.42;;;;;;;;;;4972965;28;20019;-58
2023/11/20 11:31:12;;;;;;;34.38;28.65;;;;;;;;;;4972810;28;20047;-64
2023/11/20 11:33:57;;;;;;;33.80;29.13;;;;;;;;;;4973386;28;20106;-57
2023/11/20 11:36:28;;;;;;;35.40;29.17;;;;;;;;;;4955469;28;20047;-60
2023/11/20 11:38:57;;;;;;;31.98;28.58;;;;;;;;;;4973220;28;20023;-64
2023/11/20 11:41:29;;;;;;;36.83;28.58;;;;;;;;;;4972904;28;20778;-61
2023/11/20 11:44:07;;;;;;;31.95;28.50;;;;;;;;;;4954736;28;20112;-61
2023/11/20 11:46:36;;;;;;;31.10;27.80;;;;;;;;;;4958502;28;20373;-58
2023/11/20 11:49:17;;;;;;;32.45;28.90;;;;;;;;;;4953187;28;20054;-61
2023/11/20 11:51:44;;;;;;;33.60;29.85;;;;;;;;;;4935901;29;20473;-60
2023/11/20 11:54:16;;;;;;;31.90;27.50;;;;;;;;;;4970781;28;20070;-60
2023/11/20 11:57:01;;;;;;;34.05;30.33;;;;;;;;;;4943052;28;20547;-56
2023/11/20 11:59:33;;;;;;;34.00;28.25;;;;;;;;;;4972806;28;20098;-60
2023/11/20 12:01:59;;;;;;;32.55;29.00;;;;;;;;;;4972991;28;20026;-58
2023/11/20 12:04:43;;;;;;;33.70;28.15;;;;;;;;;;4964771;28;20023;-56
2023/11/20 12:07:10;;;;;;;34.22;29.90;;;;;;;;;;4972730;28;20030;-58
2023/11/20 12:09:55;;;;;;;33.95;27.95;;;;;;;;;;4955294;28;20388;-60
2023/11/20 12:12:21;;;;;;;31.10;27.13;;;;;;;;;;4972775;28;20037;-50
2023/11/20 12:14:48;;;;;;;29.42;26.30;;;;;;;;;;4972645;28;20102;-53
2023/11/20 12:17:14;;;;;;;31.15;27.77;;;;;;;;;;4972724;28;20121;-51
2023/11/20 12:19:40;;;;;;;33.47;28.23;;;;;;;;;;4972555;28;20023;-51
2023/11/20 12:22:08;;;;;;;37.25;28.90;;;;;;;;;;4974473;28;20050;-58
2023/11/20 12:24:35;;;;;;;33.10;27.05;;;;;;;;;;4976347;28;20030;-54
2023/11/20 12:27:02;;;;;;;30.75;26.70;;;;;;;;;;4976302;28;20059;-60
2023/11/20 12:29:28;;;;;;;30.10;26.95;;;;;;;;;;4976433;28;20538;-59
2023/11/20 12:31:54;;;;;;;33.33;27.25;;;;;;;;;;4976203;28;20646;-59
2023/11/20 12:34:20;;;;;;;31.65;27.17;;;;;;;;;;4976376;28;20039;-60
2023/11/20 12:36:46;;;;;;;33.00;29.45;;;;;;;;;;4959031;28;20035;-58
2023/11/20 12:39:13;;;;;;;32.60;29.17;;;;;;;;;;4976093;28;20015;-56
2023/11/20 12:41:40;;;;;;;32.22;27.98;;;;;;;;;;4962626;28;20122;-56
2023/11/20 12:44:08;;;;;;;33.38;29.33;;;;;;;;;;4975775;28;20046;-53
2023/11/20 12:46:34;;;;;;;32.70;29.17;;;;;;;;;;4975977;28;20076;-54
2023/11/20 12:49:00;;;;;;;38.25;29.48;;;;;;;;;;4975765;28;20027;-50
2023/11/20 12:51:26;;;;;;;32.72;29.13;;;;;;;;;;4975517;28;20424;-58
2023/11/20 12:53:57;;;;;;;36.08;29.48;;;;;;;;;;4974702;28;20493;-52
2023/11/20 12:56:25;;;;;;;36.05;31.38;;;;;;;;;;4962308;28;20023;-60
2023/11/20 12:58:53;;;;;;;36.50;32.35;;;;;;;;;;4958071;28;20026;-59
2023/11/20 13:01:19;;;;;;;35.88;31.95;;;;;;;;;;4957682;28;20487;-52
2023/11/20 13:03:45;;;;;;;38.05;32.17;;;;;;;;;;4975450;28;20085;-56
2023/11/20 13:06:12;;;;;;;34.72;30.48;;;;;;;;;;4975493;28;20026;-56
2023/11/20 13:08:39;;;;;;;36.38;30.77;;;;;;;;;;4975638;28;20026;-54
2023/11/20 13:11:05;;;;;;;41.30;30.92;;;;;;;;;;4975165;28;20096;-61
2023/11/20 13:13:31;;;;;;;36.80;31.17;;;;;;;;;;4958350;28;20097;-61
2023/11/20 13:15:59;;;;;;;34.80;30.75;;;;;;;;;;4975312;28;20019;-59
2023/11/20 13:18:27;;;;;;;36.20;30.02;;;;;;;;;;4975567;28;20109;-54
2023/11/20 13:20:54;;;;;;;37.10;30.60;;;;;;;;;;4975212;28;20030;-51
2023/11/20 13:23:20;;;;;;;34.85;31.13;;;;;;;;;;4957705;28;20037;-47
2023/11/20 13:25:54;;;;;;;36.70;30.55;;;;;;;;;;4957481;28;20721;-52
2023/11/20 13:28:21;;;;;;;33.22;29.65;;;;;;;;;;4975196;28;20049;-48
2023/11/20 13:30:59;;;;;;;33.55;29.92;;;;;;;;;;4974857;28;20059;-60
2023/11/20 13:33:26;;;;;;;32.30;28.20;;;;;;;;;;4975119;28;20034;-59
2023/11/20 13:35:52;;;;;;;47.03;30.33;;;;;;;;;;4975204;28;20472;-63
2023/11/20 13:38:18;;;;;;;35.63;27.65;;;;;;;;;;4975591;28;20030;-58
2023/11/20 13:40:44;;;;;;;35.38;29.67;;;;;;;;;;4974900;28;20023;-60
2023/11/20 13:43:10;;;;;;;36.10;28.65;;;;;;;;;;4974780;28;20029;-51
2023/11/20 13:45:36;;;;;;;30.80;27.40;;;;;;;;;;4957238;28;20062;-59
2023/11/20 13:48:03;;;;;;;30.80;27.60;;;;;;;;;;4974705;28;20460;-59
2023/11/20 13:50:29;;;;;;;32.72;27.35;;;;;;;;;;4974813;28;20030;-56
2023/11/20 13:52:56;;;;;;;31.23;27.85;;;;;;;;;;4974818;28;20081;-55
2023/11/20 13:55:22;;;;;;;30.20;26.63;;;;;;;;;;4961243;28;20027;-60
2023/11/20 13:57:48;;;;;;;34.22;27.55;;;;;;;;;;4974616;28;20539;-60
2023/11/20 14:00:21;;;;;;;32.58;28.20;;;;;;;;;;4974621;28;20038;-55
2023/11/20 14:02:47;;;;;;;32.58;26.83;;;;;;;;;;4965460;28;20061;-54
2023/11/20 14:05:17;;;;;;;42.13;27.58;;;;;;;;;;4974447;28;20067;-59
2023/11/20 14:07:43;;;;;;;37.33;27.38;;;;;;;;;;4974365;28;20054;-56
2023/11/20 14:10:09;;;;;;;34.08;26.13;;;;;;;;;;4974387;28;20073;-51
2023/11/20 14:12:37;;;;;;;38.63;26.95;;;;;;;;;;4974195;28;20022;-51
2023/11/20 14:15:04;;;;;;;32.28;25.77;;;;;;;;;;4974164;28;20030;-56